Grand Forks Air Force Base Grand Forks US
ICAO: KRDR
IATA: RDR
Category: Medium
Scheduled Services: No

Elevation: 913 ft
TransAlt. 18000 ft.

Airport Communications:
APP/DEP:118.1
ATIS:27.345
CLNC DEL:119.15
GND:119.15
PMSV METRO:34.35
COMD POST:31.1
PTD:37.22
RDO:122.2
RED RIVER TWR:124.9

KRDR Zoom In..

Runways:

(A) RW 17 length 12351 ft width 150 ft
ILS 111.30 / hdg 174

(B) RW 35 length 12351 ft width 150 ft
ILS 109.90 / hdg 354

Location; KRDR
Day. 21 / Time. 05.56 Zulu
* Altimeter: 30.06
* Temperature: 18° c. 64.4°f.
* Wind from: 010° Speed 04 kn.
Dewpoint: 18° c.
Visibility: 10 Statute Miles.
Clouds: Overcast 3500 ft.

KRDR 210556Z AUTO 01004KT 10SM OVC035 18/18 A3006 RMK AO2 SLP183 T01750175 10221 20156 402230156 53002 $


Wind From 010°
Speed 04 kn.

 
 
jpsmedia.com for Web Design worldairports.se 2018   terms of use